createdAt,value
2022-11-16T02:20:18.612Z,315
2022-11-16T02:25:18.690Z,292
2022-11-16T02:30:18.604Z,315
2022-11-16T02:35:15.570Z,315
2022-11-16T02:40:18.697Z,315
2022-11-16T02:45:18.858Z,315
2022-11-16T02:50:18.711Z,292
2022-11-16T02:55:18.714Z,315
2022-11-16T03:05:18.750Z,292
2022-11-16T03:15:18.808Z,292
2022-11-16T03:20:18.767Z,315
2022-11-16T03:25:15.689Z,315
2022-11-16T03:30:17.361Z,292
2022-11-16T03:35:19.007Z,338
2022-11-16T03:40:18.875Z,338
2022-11-16T03:45:18.863Z,338
2022-11-16T03:50:19.030Z,338
2022-11-16T03:55:18.882Z,315
2022-11-16T05:05:20.556Z,68
2022-11-16T06:30:18.437Z,68
2022-11-16T07:05:20.775Z,338
2022-11-16T07:10:20.705Z,315
2022-11-16T07:15:20.653Z,338
2022-11-16T07:20:20.735Z,338
2022-11-16T07:40:20.758Z,68
2022-11-16T07:45:20.582Z,22
2022-11-16T07:55:18.642Z,68
2022-11-16T08:00:18.507Z,90
2022-11-16T08:05:18.741Z,68
2022-11-16T08:10:15.532Z,68
2022-11-16T08:30:18.506Z,68
2022-11-16T08:40:18.697Z,90
2022-11-16T09:00:18.720Z,45
2022-11-16T09:15:18.714Z,22
2022-11-16T09:20:18.698Z,68
2022-11-16T09:25:18.713Z,338
2022-11-16T09:30:18.732Z,0
2022-11-16T09:35:18.813Z,292
2022-11-16T09:40:18.798Z,90
2022-11-16T09:45:18.866Z,338
2022-11-16T09:50:18.840Z,22
2022-11-16T09:55:16.247Z,45
2022-11-16T10:00:15.696Z,45
2022-11-16T10:05:18.831Z,68
2022-11-16T10:20:18.828Z,0
2022-11-16T10:25:18.905Z,22
2022-11-16T10:45:18.948Z,22
2022-11-16T10:50:15.844Z,338
2022-11-16T10:55:15.893Z,338
2022-11-16T11:00:22.237Z,315
2022-11-16T11:05:18.935Z,315
2022-11-16T11:10:19.093Z,338
2022-11-16T11:15:24.269Z,338
2022-11-16T11:25:19.167Z,338
2022-11-16T11:30:18.955Z,315
2022-11-16T11:35:18.983Z,338
2022-11-16T11:40:19.188Z,338
2022-11-16T11:45:15.940Z,338
2022-11-16T11:50:19.229Z,338
2022-11-16T11:55:19.461Z,0
2022-11-16T12:00:19.052Z,338
2022-11-16T12:05:19.098Z,338
2022-11-16T12:10:19.131Z,338
2022-11-16T12:15:19.040Z,338
2022-11-16T12:20:18.967Z,338
2022-11-16T12:30:19.018Z,338
2022-11-16T12:35:16.126Z,338
2022-11-16T12:40:16.137Z,338
2022-11-16T12:45:19.190Z,338
2022-11-16T12:50:19.222Z,338
2022-11-16T12:55:25.945Z,338
2022-11-16T13:00:19.279Z,0
2022-11-16T13:05:19.172Z,338
2022-11-16T13:15:19.202Z,90
2022-11-16T13:20:19.216Z,68
2022-11-16T13:25:19.335Z,90
2022-11-16T13:30:16.319Z,68
2022-11-16T13:35:16.262Z,112
2022-11-16T13:40:19.298Z,68
2022-11-16T13:45:19.267Z,68
2022-11-16T13:50:19.322Z,112
2022-11-16T13:55:19.385Z,90
2022-11-16T14:00:19.278Z,68
2022-11-16T14:05:19.282Z,68
2022-11-16T14:10:19.364Z,112
2022-11-16T14:15:19.272Z,68
2022-11-16T14:20:22.081Z,90
2022-11-16T14:25:16.149Z,90
2022-11-16T14:30:19.249Z,90
2022-11-16T14:35:19.378Z,68
2022-11-16T14:40:19.420Z,68
2022-11-16T14:45:19.335Z,68
2022-11-16T14:50:19.416Z,68
2022-11-16T14:55:19.394Z,90
2022-11-16T15:00:19.381Z,90
2022-11-16T15:05:19.406Z,68
2022-11-16T15:10:19.492Z,68
2022-11-16T15:15:16.530Z,292
2022-11-16T15:20:16.321Z,338
2022-11-16T15:25:19.436Z,315
2022-11-16T15:30:19.412Z,68
2022-11-16T15:35:19.524Z,0
2022-11-16T15:40:19.484Z,22
2022-11-16T15:45:19.710Z,338
2022-11-16T15:55:19.600Z,338
2022-11-16T16:00:19.535Z,45
2022-11-16T16:05:23.829Z,68
2022-11-16T16:10:16.396Z,22
2022-11-16T16:15:16.607Z,68
2022-11-16T16:20:19.636Z,22
2022-11-16T16:25:19.645Z,68
2022-11-16T16:30:19.587Z,90
2022-11-16T16:35:19.586Z,68
2022-11-16T16:40:19.916Z,68
2022-11-16T16:45:19.620Z,68
2022-11-16T16:50:20.185Z,68
2022-11-16T16:55:20.529Z,68
2022-11-16T17:00:16.510Z,68
2022-11-16T17:05:16.484Z,22
2022-11-16T17:10:20.220Z,45
2022-11-16T17:15:19.795Z,338
2022-11-16T17:20:19.843Z,45
2022-11-16T17:25:20.027Z,22
2022-11-16T17:30:19.556Z,338
2022-11-16T17:35:20.211Z,0
2022-11-16T17:45:20.147Z,338
2022-11-16T17:50:19.787Z,338
2022-11-16T17:55:16.629Z,22
2022-11-16T18:00:16.736Z,292
2022-11-16T18:05:19.677Z,338
2022-11-16T18:10:19.723Z,292
2022-11-16T18:15:28.402Z,315
2022-11-16T18:20:19.670Z,315
2022-11-16T18:25:19.804Z,292
2022-11-16T18:30:19.678Z,292
2022-11-16T18:35:19.763Z,315
2022-11-16T18:40:19.881Z,315
2022-11-16T18:45:19.835Z,315
2022-11-16T18:50:21.435Z,315
2022-11-16T18:55:19.820Z,315
2022-11-16T19:00:19.844Z,315
2022-11-16T19:05:19.770Z,292
2022-11-16T19:10:19.739Z,292
2022-11-16T19:15:19.866Z,292
2022-11-16T19:20:19.861Z,292
2022-11-16T19:25:19.863Z,292
2022-11-16T19:30:19.758Z,292
2022-11-16T19:35:19.950Z,292
2022-11-16T19:40:20.890Z,292
2022-11-16T19:45:16.774Z,292
2022-11-16T19:50:19.939Z,292
2022-11-16T19:55:19.912Z,315
2022-11-16T20:00:19.927Z,315
2022-11-16T20:05:19.971Z,315
2022-11-16T20:10:20.161Z,315
2022-11-16T20:15:19.934Z,315
2022-11-16T20:20:19.892Z,315
2022-11-16T20:25:20.022Z,292
2022-11-16T20:30:19.922Z,292
2022-11-16T20:35:19.158Z,292
2022-11-16T20:40:16.880Z,315
2022-11-16T20:45:20.112Z,292
2022-11-16T20:50:20.299Z,315
2022-11-16T20:55:20.018Z,292
2022-11-16T21:00:20.009Z,315
2022-11-16T21:05:19.952Z,315
2022-11-16T21:10:20.024Z,315
2022-11-16T21:15:20.038Z,315
2022-11-16T21:20:27.411Z,315
2022-11-16T21:25:20.072Z,315
2022-11-16T21:30:17.114Z,315
2022-11-16T21:35:17.191Z,315
2022-11-16T21:40:20.160Z,292
2022-11-16T21:45:20.078Z,292
2022-11-16T21:50:35.528Z,292
2022-11-16T21:55:20.164Z,292
2022-11-16T22:00:20.116Z,315
2022-11-16T22:05:20.156Z,315
2022-11-16T22:10:20.181Z,315
2022-11-16T22:15:20.160Z,315
2022-11-16T22:20:16.917Z,315
2022-11-16T22:25:17.096Z,315
2022-11-16T22:30:20.234Z,292
2022-11-16T22:35:20.171Z,315
2022-11-16T22:40:20.161Z,315
2022-11-16T22:45:20.274Z,315
2022-11-16T22:50:20.170Z,315
2022-11-16T22:55:20.195Z,292
2022-11-16T23:00:20.267Z,315
2022-11-16T23:05:20.299Z,315
2022-11-16T23:10:20.323Z,315
2022-11-16T23:15:17.115Z,315
2022-11-16T23:20:17.997Z,292
2022-11-16T23:25:20.341Z,315
2022-11-16T23:30:20.176Z,292
2022-11-16T23:35:20.255Z,315
2022-11-16T23:40:20.349Z,315
2022-11-16T23:45:20.385Z,315
2022-11-16T23:50:20.353Z,315
2022-11-16T23:55:20.370Z,292
